Time;durP1;ratioP1;P1;durP2;ratioP2;P2;SDS_P1;SDS_P2;PMS_P1;PMS_P2;Temp;Humidity;BMP_temperature;BMP_pressure;BME280_temperature;BME280_humidity;BME280_pressure;Samples;Min_cycle;Max_cycle;Signal;HPM_P1;HPM_P2
2023/04/27 00:00:06;;;;;;;;;;;7.00;99.90;;;;;;4998140;28;19909;-89
2023/04/27 00:02:32;;;;;;;;;;;7.00;99.90;;;;;;5011235;28;19929;-88
2023/04/27 00:04:57;;;;;;;;;;;6.90;99.90;;;;;;4991963;28;20364;-87
2023/04/27 00:07:23;;;;;;;;;;;6.90;99.90;;;;;;5002237;28;19905;-88
2023/04/27 00:09:50;;;;;;;;;;;6.80;99.90;;;;;;4996070;28;20434;-86
2023/04/27 00:12:16;;;;;;;;;;;6.80;99.90;;;;;;5009870;28;19952;-89
2023/04/27 00:14:41;;;;;;;;;;;6.80;99.90;;;;;;5007963;28;20373;-89
2023/04/27 00:17:07;;;;;;;;;;;6.80;99.90;;;;;;5001415;28;19921;-88
2023/04/27 00:19:33;;;;;;;;;;;6.80;99.90;;;;;;5033632;28;19901;-87
2023/04/27 00:21:59;;;;;;;;;;;6.70;99.90;;;;;;5027496;28;19913;-88
2023/04/27 00:24:24;;;;;;;;;;;6.70;99.90;;;;;;4993223;28;19906;-88
2023/04/27 00:26:50;;;;;;;;;;;6.60;99.90;;;;;;5000587;28;19905;-88
2023/04/27 00:29:15;;;;;;;;;;;6.60;99.90;;;;;;5000750;28;19905;-88
2023/04/27 00:31:41;;;;;;;;;;;6.60;99.90;;;;;;5001515;28;19912;-88
2023/04/27 00:34:06;;;;;;;;;;;6.60;99.90;;;;;;5018131;28;20478;-89
2023/04/27 00:36:32;;;;;;;;;;;6.60;99.90;;;;;;5018392;28;20000;-88
2023/04/27 00:38:58;;;;;;;;;;;6.50;99.90;;;;;;5013933;28;19953;-88
2023/04/27 00:41:23;;;;;;;;;;;6.40;99.90;;;;;;5013806;28;19905;-88
2023/04/27 00:43:49;;;;;;;;;;;6.40;99.90;;;;;;4997741;28;19906;-88
2023/04/27 00:46:15;;;;;;;;;;;6.40;99.90;;;;;;5016594;28;20012;-88
2023/04/27 00:48:41;;;;;;;;;;;6.30;99.90;;;;;;4989007;28;19905;-88
2023/04/27 00:51:07;;;;;;;;;;;6.30;99.90;;;;;;4987103;28;19909;-88
2023/04/27 00:53:32;;;;;;;;;;;6.30;99.90;;;;;;5000232;28;19905;-88
2023/04/27 00:55:58;;;;;;;;;;;6.30;99.90;;;;;;5010533;28;19906;-89
2023/04/27 00:58:24;;;;;;;;;;;6.30;99.90;;;;;;4999056;28;19968;-88
2023/04/27 01:00:50;;;;;;;;;;;6.20;99.90;;;;;;5012185;28;19912;-88
2023/04/27 01:03:16;;;;;;;;;;;6.30;99.90;;;;;;5017971;28;20583;-88
2023/04/27 01:05:41;;;;;;;;;;;6.20;99.90;;;;;;4983114;28;20353;-88
2023/04/27 01:08:07;;;;;;;;;;;6.20;99.90;;;;;;5014219;28;19910;-89
2023/04/27 01:10:36;;;;;;;;;;;6.10;99.90;;;;;;5016535;28;19967;-88
2023/04/27 01:13:02;;;;;;;;;;;6.10;99.90;;;;;;4999596;28;19905;-88
2023/04/27 01:15:27;;;;;;;;;;;6.10;99.90;;;;;;4995529;28;20045;-88
2023/04/27 01:18:00;;;;;;;;;;;6.00;99.90;;;;;;5010083;28;19920;-88
2023/04/27 01:20:29;;;;;;;;;;;6.00;99.90;;;;;;5017174;28;19909;-89
2023/04/27 01:22:55;;;;;;;;;;;5.90;99.90;;;;;;4985291;28;19913;-89
2023/04/27 01:25:20;;;;;;;;;;;5.90;99.90;;;;;;4982044;28;19909;-88
2023/04/27 01:27:48;;;;;;;;;;;5.90;99.90;;;;;;4992269;28;20511;-88
2023/04/27 01:30:31;;;;;;;;;;;5.90;99.90;;;;;;4993500;28;19916;-89
2023/04/27 01:32:57;;;;;;;;;;;5.90;99.90;;;;;;5004171;28;19948;-87
2023/04/27 01:35:22;;;;;;;;;;;5.80;99.90;;;;;;5002692;28;20031;-88
2023/04/27 01:37:48;;;;;;;;;;;5.80;99.90;;;;;;4997362;28;20367;-88
2023/04/27 01:40:14;;;;;;;;;;;5.80;99.90;;;;;;4999127;28;19963;-89
2023/04/27 01:42:39;;;;;;;;;;;5.80;99.90;;;;;;4993226;28;20287;-88
2023/04/27 01:45:12;;;;;;;;;;;5.70;99.90;;;;;;4998184;28;19948;-88
2023/04/27 01:47:38;;;;;;;;;;;5.70;99.90;;;;;;5013905;28;20272;-88
2023/04/27 01:50:06;;;;;;;;;;;5.70;99.90;;;;;;5009166;28;19916;-88
2023/04/27 01:52:32;;;;;;;;;;;5.70;99.90;;;;;;5012551;28;20371;-87
2023/04/27 01:54:57;;;;;;;;;;;5.60;99.90;;;;;;4998099;28;19906;-88
2023/04/27 01:57:24;;;;;;;;;;;5.60;99.90;;;;;;4997697;28;19914;-88
2023/04/27 01:59:49;;;;;;;;;;;5.60;99.90;;;;;;4997459;28;19905;-87
2023/04/27 02:02:17;;;;;;;;;;;5.60;99.90;;;;;;5017679;28;20387;-87
2023/04/27 02:04:43;;;;;;;;;;;5.60;99.90;;;;;;4999135;28;19955;-87
2023/04/27 02:07:09;;;;;;;;;;;5.60;99.90;;;;;;5013357;28;20318;-87
2023/04/27 02:09:35;;;;;;;;;;;5.60;99.90;;;;;;4983178;28;20052;-88
2023/04/27 02:12:01;;;;;;;;;;;5.60;99.90;;;;;;5015654;28;20305;-87
2023/04/27 02:14:27;;;;;;;;;;;5.60;99.90;;;;;;5015953;28;19905;-87
2023/04/27 02:16:52;;;;;;;;;;;5.50;99.90;;;;;;5005087;28;19996;-87
2023/04/27 02:19:18;;;;;;;;;;;5.50;99.90;;;;;;5015436;28;19906;-87
2023/04/27 02:21:43;;;;;;;;;;;5.50;99.90;;;;;;4985791;28;19909;-88
2023/04/27 02:24:09;;;;;;;;;;;5.50;99.90;;;;;;4996981;28;19919;-87
2023/04/27 02:26:36;;;;;;;;;;;5.40;99.90;;;;;;5012937;28;20255;-87
2023/04/27 02:29:05;;;;;;;;;;;5.40;99.90;;;;;;4989246;28;19905;-87
2023/04/27 02:31:30;;;;;;;;;;;5.40;99.90;;;;;;4982211;28;19910;-88
2023/04/27 02:33:56;;;;;;;;;;;5.30;99.90;;;;;;5008182;28;20036;-88
2023/04/27 02:36:21;;;;;;;;;;;5.30;99.90;;;;;;4996771;28;20557;-90
2023/04/27 02:38:47;;;;;;;;;;;5.20;99.90;;;;;;5014395;28;19947;-87
2023/04/27 02:41:12;;;;;;;;;;;5.20;99.90;;;;;;5027138;28;19905;-87
2023/04/27 02:43:38;;;;;;;;;;;5.20;99.90;;;;;;4996467;28;19910;-87
2023/04/27 02:46:03;;;;;;;;;;;5.10;99.90;;;;;;4996952;28;20281;-88
2023/04/27 02:48:29;;;;;;;;;;;5.00;99.90;;;;;;5012900;28;19999;-89
2023/04/27 02:50:56;;;;;;;;;;;5.00;99.90;;;;;;5013003;28;20132;-87
2023/04/27 02:53:21;;;;;;;;;;;5.00;99.90;;;;;;5000720;28;20578;-89
2023/04/27 02:55:47;;;;;;;;;;;4.90;99.90;;;;;;5002136;28;19909;-88
2023/04/27 02:58:13;;;;;;;;;;;4.90;99.90;;;;;;4983840;28;19913;-88
2023/04/27 03:00:39;;;;;;;;;;;4.90;99.90;;;;;;5009964;28;19916;-88
2023/04/27 03:03:05;;;;;;;;;;;4.90;99.90;;;;;;4997448;28;20281;-90
2023/04/27 03:05:31;;;;;;;;;;;4.80;99.90;;;;;;4987913;28;20429;-87
2023/04/27 03:07:56;;;;;;;;;;;4.90;99.90;;;;;;4995705;28;19947;-88
2023/04/27 03:10:22;;;;;;;;;;;4.80;99.90;;;;;;5002483;28;20256;-88
2023/04/27 03:12:47;;;;;;;;;;;4.80;99.90;;;;;;5000270;28;19913;-87
2023/04/27 03:15:13;;;;;;;;;;;4.80;99.90;;;;;;4989009;28;19905;-88
2023/04/27 03:17:38;;;;;;;;;;;4.80;99.90;;;;;;5009185;28;19920;-88
2023/04/27 03:20:08;;;;;;;;;;;4.80;99.90;;;;;;4997712;28;19928;-88
2023/04/27 03:22:34;;;;;;;;;;;4.80;99.90;;;;;;4992494;28;19920;-87
2023/04/27 03:24:59;;;;;;;;;;;4.80;99.90;;;;;;5012522;28;20371;-87
2023/04/27 03:27:25;;;;;;;;;;;4.80;99.90;;;;;;5012570;28;19910;-89
2023/04/27 03:29:52;;;;;;;;;;;4.80;99.90;;;;;;4984644;28;19928;-90
2023/04/27 03:32:20;;;;;;;;;;;4.80;99.90;;;;;;5005484;28;19909;-87
2023/04/27 03:34:45;;;;;;;;;;;4.80;99.90;;;;;;5012074;28;19905;-89
2023/04/27 03:37:11;;;;;;;;;;;4.80;99.90;;;;;;5015009;28;19948;-89
2023/04/27 03:39:37;;;;;;;;;;;4.80;99.90;;;;;;4984625;28;19917;-87
2023/04/27 03:42:02;;;;;;;;;;;4.80;99.90;;;;;;5004057;28;20060;-87
2023/04/27 03:44:30;;;;;;;;;;;4.80;99.90;;;;;;5005929;28;19905;-89
2023/04/27 03:46:55;;;;;;;;;;;4.80;99.90;;;;;;5016571;28;19915;-86
2023/04/27 03:49:21;;;;;;;;;;;4.70;99.90;;;;;;5009178;28;19983;-89
2023/04/27 03:51:47;;;;;;;;;;;4.70;99.90;;;;;;4992051;28;19971;-88
2023/04/27 03:54:13;;;;;;;;;;;4.70;99.90;;;;;;5003537;28;20352;-90
2023/04/27 03:56:39;;;;;;;;;;;4.70;99.90;;;;;;5001256;28;20011;-88
2023/04/27 03:59:05;;;;;;;;;;;4.70;99.90;;;;;;5004604;28;19988;-87
2023/04/27 04:01:30;;;;;;;;;;;4.70;99.90;;;;;;4994386;28;20040;-87
2023/04/27 04:03:58;;;;;;;;;;;4.70;99.90;;;;;;5003283;28;19909;-89
2023/04/27 04:06:26;;;;;;;;;;;4.70;99.90;;;;;;4986360;28;19988;-87
2023/04/27 04:08:52;;;;;;;;;;;4.70;99.90;;;;;;5017296;28;19913;-87
2023/04/27 04:11:18;;;;;;;;;;;4.70;99.90;;;;;;5015288;28;19909;-86
2023/04/27 04:13:43;;;;;;;;;;;4.70;99.90;;;;;;5001827;28;19912;-88
2023/04/27 04:16:09;;;;;;;;;;;4.80;99.90;;;;;;5007297;28;19916;-89
2023/04/27 04:18:35;;;;;;;;;;;4.70;99.90;;;;;;4999513;28;20316;-89
2023/04/27 04:21:01;;;;;;;;;;;4.70;99.90;;;;;;4998046;28;20459;-89
2023/04/27 04:23:26;;;;;;;;;;;4.70;99.90;;;;;;5016805;28;20326;-89
2023/04/27 04:25:55;;;;;;;;;;;4.60;99.90;;;;;;5015509;28;20020;-88
2023/04/27 04:28:21;;;;;;;;;;;4.60;99.90;;;;;;4999199;28;19959;-89
2023/04/27 04:30:47;;;;;;;;;;;4.60;99.90;;;;;;4992371;28;19910;-89
2023/04/27 04:33:12;;;;;;;;;;;4.60;99.90;;;;;;5004433;28;19917;-88
2023/04/27 04:35:38;;;;;;;;;;;4.50;99.90;;;;;;5003823;28;19939;-88
2023/04/27 04:38:04;;;;;;;;;;;4.50;99.90;;;;;;5015640;28;19913;-89
2023/04/27 04:40:30;;;;;;;;;;;4.50;99.90;;;;;;5014830;28;20407;-89
2023/04/27 04:42:55;;;;;;;;;;;4.60;99.90;;;;;;4998784;28;19905;-89
2023/04/27 04:45:21;;;;;;;;;;;4.60;99.90;;;;;;5003892;28;20339;-88
2023/04/27 04:47:48;;;;;;;;;;;4.70;99.90;;;;;;5003733;28;19909;-88
2023/04/27 04:50:16;;;;;;;;;;;4.70;99.90;;;;;;4994121;28;20322;-88
2023/04/27 04:52:41;;;;;;;;;;;4.70;99.90;;;;;;4996872;28;19916;-89
2023/04/27 04:55:07;;;;;;;;;;;4.80;99.90;;;;;;5012500;28;19909;-88
2023/04/27 04:57:32;;;;;;;;;;;4.80;99.90;;;;;;5019448;28;19913;-88
2023/04/27 04:59:58;;;;;;;;;;;4.80;99.90;;;;;;5000147;28;19920;-88
2023/04/27 05:02:26;;;;;;;;;;;4.90;99.90;;;;;;4984223;28;19893;-89
2023/04/27 05:04:56;;;;;;;;;;;4.90;99.90;;;;;;5015556;28;19905;-88
2023/04/27 05:07:24;;;;;;;;;;;5.10;99.90;;;;;;4992456;28;19912;-89
2023/04/27 05:09:49;;;;;;;;;;;5.20;99.90;;;;;;5022782;28;19905;-89
2023/04/27 05:12:23;;;;;;;;;;;5.20;99.90;;;;;;5010213;28;19967;-88
2023/04/27 05:14:49;;;;;;;;;;;5.40;99.90;;;;;;5013200;28;19920;-89
2023/04/27 05:17:15;;;;;;;;;;;5.40;99.90;;;;;;4987925;28;19909;-89
2023/04/27 05:19:43;;;;;;;;;;;5.60;99.90;;;;;;5013596;28;19910;-88
2023/04/27 05:22:11;;;;;;;;;;;5.70;99.90;;;;;;4998804;28;19909;-88
2023/04/27 05:24:37;;;;;;;;;;;5.80;99.90;;;;;;4988338;28;19905;-88
2023/04/27 05:27:02;;;;;;;;;;;5.90;99.90;;;;;;5003379;28;19918;-88
2023/04/27 05:29:28;;;;;;;;;;;6.00;99.90;;;;;;4993670;28;19912;-87
2023/04/27 05:31:54;;;;;;;;;;;6.20;99.90;;;;;;4999997;28;20335;-88
2023/04/27 05:34:19;;;;;;;;;;;6.20;99.90;;;;;;5000828;28;19990;-88
2023/04/27 05:36:46;;;;;;;;;;;6.30;99.90;;;;;;5004561;28;20402;-88
2023/04/27 05:39:11;;;;;;;;;;;6.40;99.90;;;;;;5024327;28;19944;-89
2023/04/27 05:41:37;;;;;;;;;;;6.50;99.90;;;;;;5007638;28;19905;-88
2023/04/27 05:44:03;;;;;;;;;;;6.60;99.90;;;;;;5013957;28;20938;-88
2023/04/27 05:46:28;;;;;;;;;;;6.70;99.90;;;;;;4985635;28;19905;-88
2023/04/27 05:48:54;;;;;;;;;;;6.80;99.90;;;;;;5003734;28;19952;-88
2023/04/27 05:51:20;;;;;;;;;;;6.80;99.90;;;;;;5003985;28;19915;-88
2023/04/27 05:53:45;;;;;;;;;;;6.90;99.90;;;;;;4986993;28;19952;-89
2023/04/27 05:56:11;;;;;;;;;;;6.90;99.90;;;;;;5014765;28;19960;-86
2023/04/27 05:58:36;;;;;;;;;;;7.00;99.90;;;;;;5001186;28;20376;-88
2023/04/27 06:01:02;;;;;;;;;;;7.10;99.90;;;;;;4999185;28;20500;-88
2023/04/27 06:03:28;;;;;;;;;;;7.20;99.90;;;;;;4983454;28;19936;-89
2023/04/27 06:05:54;;;;;;;;;;;7.30;99.90;;;;;;5014255;28;19905;-89
2023/04/27 06:08:20;;;;;;;;;;;7.30;99.90;;;;;;4987925;28;20030;-88
2023/04/27 06:10:45;;;;;;;;;;;7.30;99.90;;;;;;5016773;28;19913;-87
2023/04/27 06:13:18;;;;;;;;;;;7.40;99.90;;;;;;4996985;28;19974;-90
2023/04/27 06:15:44;;;;;;;;;;;7.50;99.90;;;;;;5012441;28;20012;-90
2023/04/27 06:18:10;;;;;;;;;;;7.60;99.90;;;;;;5020032;28;19917;-89
2023/04/27 06:20:36;;;;;;;;;;;7.60;99.90;;;;;;5007444;28;19909;-89
2023/04/27 06:23:01;;;;;;;;;;;7.70;99.90;;;;;;4986493;28;19916;-88
2023/04/27 06:25:27;;;;;;;;;;;7.80;99.90;;;;;;5001200;28;19915;-87
2023/04/27 06:27:56;;;;;;;;;;;7.80;99.90;;;;;;5007919;28;20020;-89
2023/04/27 06:30:22;;;;;;;;;;;7.90;99.90;;;;;;4992542;28;19916;-89
2023/04/27 06:32:48;;;;;;;;;;;7.90;99.90;;;;;;4983683;28;19909;-89
2023/04/27 06:35:14;;;;;;;;;;;8.00;99.90;;;;;;4996838;28;19905;-88
2023/04/27 06:37:40;;;;;;;;;;;8.00;99.90;;;;;;5016813;28;19940;-89
2023/04/27 06:40:06;;;;;;;;;;;8.10;99.90;;;;;;4998923;28;20460;-88
2023/04/27 06:42:32;;;;;;;;;;;8.10;99.90;;;;;;4991799;28;19948;-88
2023/04/27 06:44:58;;;;;;;;;;;8.10;99.90;;;;;;5017303;28;19916;-88
2023/04/27 06:47:24;;;;;;;;;;;8.20;99.90;;;;;;5002686;28;20607;-91
2023/04/27 06:49:49;;;;;;;;;;;8.20;99.90;;;;;;4988356;28;19916;-90
2023/04/27 06:52:15;;;;;;;;;;;8.30;99.90;;;;;;5016093;28;19916;-88
2023/04/27 06:54:40;;;;;;;;;;;8.40;99.90;;;;;;5005192;28;19905;-87
2023/04/27 06:57:08;;;;;;;;;;;8.50;99.90;;;;;;5000954;28;19937;-86
2023/04/27 06:59:34;;;;;;;;;;;8.50;99.90;;;;;;4989505;28;20323;-86
2023/04/27 07:02:00;;;;;;;;;;;8.50;99.90;;;;;;5016699;28;19909;-86
2023/04/27 07:04:26;;;;;;;;;;;8.50;99.90;;;;;;5000759;28;19905;-86
2023/04/27 07:06:51;;;;;;;;;;;8.60;99.90;;;;;;5018282;28;20008;-83
2023/04/27 07:09:19;;;;;;;;;;;8.70;99.90;;;;;;5013033;28;19909;-84
2023/04/27 07:11:45;;;;;;;;;;;8.80;99.90;;;;;;5003924;28;19905;-85
2023/04/27 07:14:10;;;;;;;;;;;8.90;99.90;;;;;;5003425;28;19904;-87
2023/04/27 07:16:36;;;;;;;;;;;9.10;99.90;;;;;;5156157;22;19920;-87
2023/04/27 07:19:01;;;;;;;;;;;9.20;99.90;;;;;;4997886;28;19956;-86
2023/04/27 07:21:27;;;;;;;;;;;9.30;99.90;;;;;;4994986;28;19932;-85
2023/04/27 07:23:53;;;;;;;;;;;9.40;99.90;;;;;;4996827;28;19984;-86
2023/04/27 07:26:18;;;;;;;;;;;9.40;99.90;;;;;;5000222;28;20748;-86
2023/04/27 07:28:46;;;;;;;;;;;9.50;99.90;;;;;;4996316;28;19905;-86
2023/04/27 07:31:11;;;;;;;;;;;9.60;99.90;;;;;;5000212;28;19928;-85
2023/04/27 07:33:37;;;;;;;;;;;9.60;99.90;;;;;;4998805;28;19905;-87
2023/04/27 07:36:04;;;;;;;;;;;9.60;99.90;;;;;;5004273;28;19909;-87
2023/04/27 07:38:30;;;;;;;;;;;9.60;99.90;;;;;;5028763;28;19912;-86
2023/04/27 07:40:57;;;;;;;;;;;9.80;99.90;;;;;;4999517;28;20277;-86
2023/04/27 07:43:25;;;;;;;;;;;9.80;99.90;;;;;;4996221;28;20344;-85
2023/04/27 07:45:51;;;;;;;;;;;10.00;99.90;;;;;;4999188;28;20290;-87
2023/04/27 07:48:17;;;;;;;;;;;10.00;99.90;;;;;;4998123;28;19920;-86
2023/04/27 07:50:42;;;;;;;;;;;10.20;99.90;;;;;;4996192;28;19912;-86
2023/04/27 07:53:08;;;;;;;;;;;10.40;99.40;;;;;;4996856;28;19913;-86
2023/04/27 07:55:33;;;;;;;;;;;10.50;98.70;;;;;;4995468;28;19913;-86
2023/04/27 07:57:59;;;;;;;;;;;10.60;98.50;;;;;;5136506;23;20428;-85
2023/04/27 08:00:25;;;;;;;;;;;10.80;98.20;;;;;;5003534;28;19919;-84
2023/04/27 08:02:56;;;;;;;;;;;11.00;97.60;;;;;;5001272;28;19985;-84
2023/04/27 08:05:24;;;;;;;;;;;11.20;97.60;;;;;;5001290;28;20003;-85
2023/04/27 08:07:52;;;;;;;;;;;11.50;97.80;;;;;;5002375;28;20164;-88
2023/04/27 08:10:18;;;;;;;;;;;11.60;96.80;;;;;;5159201;22;19979;-85
2023/04/27 08:12:43;;;;;;;;;;;11.90;96.20;;;;;;4996422;28;19917;-85
2023/04/27 08:15:09;;;;;;;;;;;11.90;95.20;;;;;;5011338;28;19960;-82
2023/04/27 08:17:36;;;;;;;;;;;12.20;95.70;;;;;;5012844;28;19909;-84
2023/04/27 08:20:01;;;;;;;;;;;12.40;93.70;;;;;;5015289;28;20217;-83
2023/04/27 08:22:30;;;;;;;;;;;12.50;93.20;;;;;;5001260;28;19913;-87
2023/04/27 08:24:55;;;;;;;;;;;12.50;92.60;;;;;;4993796;28;20007;-87
2023/04/27 08:27:21;;;;;;;;;;;12.60;92.40;;;;;;4996615;28;20078;-87
2023/04/27 08:29:49;;;;;;;;;;;12.80;92.90;;;;;;4995716;28;19913;-89
2023/04/27 08:32:15;;;;;;;;;;;13.10;91.30;;;;;;4992922;28;20014;-81
2023/04/27 08:34:41;;;;;;;;;;;13.40;91.30;;;;;;4989239;28;19975;-85
2023/04/27 08:37:07;;;;;;;;;;;13.70;89.80;;;;;;4995833;28;19916;-85
2023/04/27 08:39:32;;;;;;;;;;;14.00;87.30;;;;;;4998734;28;19905;-85
2023/04/27 08:41:58;;;;;;;;;;;14.20;88.30;;;;;;4999626;28;20278;-85
2023/04/27 08:44:24;;;;;;;;;;;14.60;88.40;;;;;;4998218;28;19991;-86
2023/04/27 08:46:50;;;;;;;;;;;14.40;82.60;;;;;;5015065;28;19905;-86
2023/04/27 08:49:15;;;;;;;;;;;14.70;83.80;;;;;;5017640;28;21180;-87
2023/04/27 08:51:41;;;;;;;;;;;14.90;83.30;;;;;;5001444;28;19920;-88
2023/04/27 08:54:07;;;;;;;;;;;15.20;82.40;;;;;;5000368;28;19982;-88
2023/04/27 08:56:32;;;;;;;;;;;15.50;79.70;;;;;;5000431;28;20011;-87
2023/04/27 08:59:00;;;;;;;;;;;15.70;78.30;;;;;;4996667;28;19918;-87
2023/04/27 09:01:26;;;;;;;;;;;15.90;77.80;;;;;;5000684;28;19917;-92
2023/04/27 09:03:55;;;;;;;;;;;16.10;75.20;;;;;;4997995;28;20365;-88
2023/04/27 09:06:30;;;;;;;;;;;16.50;73.90;;;;;;4997574;28;20153;-88
2023/04/27 09:08:56;;;;;;;;;;;16.70;70.90;;;;;;5015975;28;20178;-86
2023/04/27 09:11:29;;;;;;;;;;;16.50;70.50;;;;;;5014914;28;20330;-87
2023/04/27 09:13:56;;;;;;;;;;;16.50;69.60;;;;;;4998532;28;19935;-86
2023/04/27 09:16:23;;;;;;;;;;;16.60;68.10;;;;;;5014149;28;19968;-86
2023/04/27 09:18:49;;;;;;;;;;;16.50;66.60;;;;;;5015120;28;20250;-86
2023/04/27 09:21:32;;;;;;;;;;;16.60;68.10;;;;;;5012548;28;19960;-86
2023/04/27 09:24:08;;;;;;;;;;;16.60;66.20;;;;;;4997641;28;20047;-86
2023/04/27 09:26:33;;;;;;;;;;;16.60;63.40;;;;;;5000149;28;19909;-88
2023/04/27 09:28:59;;;;;;;;;;;16.80;64.10;;;;;;4996834;28;19914;-86
2023/04/27 09:31:31;;;;;;;;;;;16.90;63.10;;;;;;4995817;28;19913;-83
2023/04/27 09:33:57;;;;;;;;;;;17.00;60.90;;;;;;5013106;28;20545;-83
2023/04/27 09:36:31;;;;;;;;;;;17.00;61.20;;;;;;4998464;28;19909;-90
2023/04/27 09:38:56;;;;;;;;;;;17.20;62.20;;;;;;5001175;28;19917;-91
2023/04/27 09:41:24;;;;;;;;;;;17.10;60.80;;;;;;5002170;28;20004;-91
2023/04/27 09:43:50;;;;;;;;;;;17.10;60.50;;;;;;4998931;28;19944;-83
2023/04/27 09:46:16;;;;;;;;;;;17.50;63.80;;;;;;4997487;28;19949;-86
2023/04/27 09:48:41;;;;;;;;;;;18.30;60.80;;;;;;4996475;28;20269;-84
2023/04/27 09:51:07;;;;;;;;;;;18.50;58.60;;;;;;4998322;28;20420;-85
2023/04/27 09:53:53;;;;;;;;;;;18.60;56.70;;;;;;5016260;28;19910;-87
2023/04/27 09:56:30;;;;;;;;;;;18.40;57.70;;;;;;5014322;28;19909;-85
2023/04/27 09:58:56;;;;;;;;;;;18.30;57.40;;;;;;5008503;28;20335;-84
2023/04/27 10:01:25;;;;;;;;;;;18.30;55.40;;;;;;5014354;28;19924;-90
2023/04/27 10:04:02;;;;;;;;;;;18.30;55.90;;;;;;4998257;28;19932;-90
2023/04/27 10:06:47;;;;;;;;;;;18.30;56.70;;;;;;4994100;28;19913;-88
2023/04/27 10:09:16;;;;;;;;;;;18.20;55.80;;;;;;4993257;28;19925;-85
2023/04/27 10:11:43;;;;;;;;;;;18.10;55.60;;;;;;4998312;28;19917;-84
2023/04/27 10:14:10;;;;;;;;;;;18.00;55.00;;;;;;5007286;28;19935;-85
2023/04/27 10:16:43;;;;;;;;;;;18.30;56.40;;;;;;5000641;28;21052;-84
2023/04/27 10:19:08;;;;;;;;;;;18.90;55.70;;;;;;5006195;28;19917;-83
2023/04/27 10:21:34;;;;;;;;;;;19.00;55.00;;;;;;5028682;28;19928;-85
2023/04/27 10:24:05;;;;;;;;;;;19.30;52.30;;;;;;5010819;28;19905;-85
2023/04/27 10:26:33;;;;;;;;;;;19.70;53.60;;;;;;5001392;28;20249;-85
2023/04/27 10:29:06;;;;;;;;;;;19.90;52.50;;;;;;4995431;28;20287;-86
2023/04/27 10:31:41;;;;;;;;;;;20.50;52.00;;;;;;4998448;28;19916;-86
2023/04/27 10:34:14;;;;;;;;;;;20.50;48.70;;;;;;4994272;28;19945;-87
2023/04/27 10:36:42;;;;;;;;;;;20.00;49.30;;;;;;5015317;28;19905;-87
2023/04/27 10:39:15;;;;;;;;;;;20.00;52.20;;;;;;4996210;28;19925;-87
2023/04/27 10:41:56;;;;;;;;;;;19.70;50.40;;;;;;4998131;28;19912;-86
2023/04/27 10:44:27;;;;;;;;;;;19.80;52.00;;;;;;5013084;28;19955;-86
2023/04/27 10:46:53;;;;;;;;;;;19.60;49.70;;;;;;4999116;28;20113;-87
2023/04/27 10:49:25;;;;;;;;;;;19.60;50.10;;;;;;5011206;28;19909;-88
2023/04/27 10:51:50;;;;;;;;;;;19.50;48.90;;;;;;5016896;28;20410;-85
2023/04/27 10:54:16;;;;;;;;;;;19.60;49.50;;;;;;5001262;28;19897;-84
2023/04/27 10:56:42;;;;;;;;;;;19.70;52.30;;;;;;5013349;28;19921;-86
2023/04/27 10:59:08;;;;;;;;;;;19.60;50.30;;;;;;5020302;28;19921;-85
2023/04/27 11:01:33;;;;;;;;;;;19.60;49.90;;;;;;5001967;28;19905;-85
2023/04/27 11:04:02;;;;;;;;;;;19.60;49.60;;;;;;4974420;28;19905;-86
2023/04/27 11:06:29;;;;;;;;;;;19.80;51.00;;;;;;4987331;28;19905;-84
2023/04/27 11:08:55;;;;;;;;;;;19.60;48.10;;;;;;4986932;28;19910;-84
2023/04/27 11:11:21;;;;;;;;;;;19.40;49.40;;;;;;4984314;28;19917;-83
2023/04/27 11:13:51;;;;;;;;;;;19.50;50.30;;;;;;4985847;28;19909;-83
2023/04/27 11:16:18;;;;;;;;;;;19.60;48.30;;;;;;4981774;28;19993;-85
2023/04/27 11:18:44;;;;;;;;;;;19.40;48.40;;;;;;4986829;28;19921;-83
2023/04/27 11:21:14;;;;;;;;;;;19.40;49.70;;;;;;4997574;28;20533;-83
2023/04/27 11:23:40;;;;;;;;;;;19.60;51.70;;;;;;4974273;28;19914;-84
2023/04/27 11:26:15;;;;;;;;;;;19.80;48.10;;;;;;4994777;28;19932;-83
2023/04/27 11:28:42;;;;;;;;;;;20.00;49.20;;;;;;4977992;28;19976;-85
2023/04/27 11:31:08;;;;;;;;;;;20.00;48.80;;;;;;4985637;28;19909;-83
2023/04/27 11:33:33;;;;;;;;;;;19.60;47.40;;;;;;4982438;28;19932;-85
2023/04/27 11:35:59;;;;;;;;;;;19.20;46.90;;;;;;4980218;28;19921;-85
2023/04/27 11:38:27;;;;;;;;;;;19.30;49.10;;;;;;4996438;28;20427;-87
2023/04/27 11:41:00;;;;;;;;;;;19.40;49.20;;;;;;4988548;28;19996;-85
2023/04/27 11:43:26;;;;;;;;;;;19.70;47.90;;;;;;4997732;28;20037;-88
2023/04/27 11:45:52;;;;;;;;;;;19.90;49.00;;;;;;4986197;28;20282;-86
2023/04/27 11:48:27;;;;;;;;;;;19.80;46.90;;;;;;5005660;28;19905;-86
2023/04/27 11:50:57;;;;;;;;;;;19.80;46.60;;;;;;4995383;28;19961;-85
2023/04/27 11:53:33;;;;;;;;;;;19.80;47.30;;;;;;4991184;28;19917;-86
2023/04/27 11:56:03;;;;;;;;;;;19.80;48.40;;;;;;4987751;28;20000;-85
2023/04/27 11:58:32;;;;;;;;;;;19.90;46.20;;;;;;4981583;28;19921;-85
2023/04/27 12:00:57;;;;;;;;;;;20.10;47.30;;;;;;4980506;28;19948;-85
2023/04/27 12:03:23;;;;;;;;;;;20.40;46.50;;;;;;4989436;28;19905;-85
2023/04/27 12:05:51;;;;;;;;;;;20.50;47.40;;;;;;4990094;28;19957;-85
2023/04/27 12:08:17;;;;;;;;;;;20.90;45.70;;;;;;4987246;28;19906;-88
2023/04/27 12:10:43;;;;;;;;;;;21.00;45.00;;;;;;4980036;28;19914;-87
2023/04/27 12:13:11;;;;;;;;;;;20.80;45.10;;;;;;5006390;28;19996;-88
2023/04/27 12:15:37;;;;;;;;;;;20.80;46.10;;;;;;4986588;28;19905;-87
2023/04/27 12:18:02;;;;;;;;;;;20.90;45.30;;;;;;4989037;28;19920;-88
2023/04/27 12:20:28;;;;;;;;;;;20.70;45.40;;;;;;4988902;28;19996;-87
2023/04/27 12:22:53;;;;;;;;;;;20.60;45.50;;;;;;5003963;28;20341;-90
2023/04/27 12:25:20;;;;;;;;;;;20.80;44.70;;;;;;4993910;28;19945;-86
2023/04/27 12:27:46;;;;;;;;;;;21.00;44.10;;;;;;4990182;28;19905;-85
2023/04/27 12:30:13;;;;;;;;;;;21.20;44.50;;;;;;4981698;28;19909;-85
2023/04/27 12:32:38;;;;;;;;;;;21.20;44.40;;;;;;4981665;28;19920;-84
2023/04/27 12:35:05;;;;;;;;;;;21.30;44.20;;;;;;5002279;28;19906;-85
2023/04/27 12:37:30;;;;;;;;;;;21.20;43.90;;;;;;5000427;28;19905;-87
2023/04/27 12:39:56;;;;;;;;;;;21.20;44.00;;;;;;4988484;28;19975;-86
2023/04/27 12:42:23;;;;;;;;;;;20.70;44.20;;;;;;4989486;28;19909;-85
2023/04/27 12:44:52;;;;;;;;;;;20.40;43.50;;;;;;4989162;28;19951;-86
2023/04/27 12:47:20;;;;;;;;;;;20.10;44.00;;;;;;5004355;28;19920;-86
2023/04/27 12:49:46;;;;;;;;;;;20.00;45.60;;;;;;4992229;28;19913;-86
2023/04/27 12:52:11;;;;;;;;;;;20.00;45.50;;;;;;5009500;28;19909;-85
2023/04/27 12:54:37;;;;;;;;;;;20.30;44.50;;;;;;5003866;28;19906;-85
2023/04/27 12:57:05;;;;;;;;;;;20.70;44.60;;;;;;4993891;28;20203;-84
2023/04/27 12:59:37;;;;;;;;;;;21.00;44.40;;;;;;4981380;28;20316;-86
2023/04/27 13:02:02;;;;;;;;;;;21.30;43.80;;;;;;4983592;28;19964;-91
2023/04/27 13:04:29;;;;;;;;;;;21.30;43.40;;;;;;4990366;28;19945;-85
2023/04/27 13:06:55;;;;;;;;;;;21.30;43.00;;;;;;4989531;28;19999;-86
2023/04/27 13:09:21;;;;;;;;;;;21.30;43.50;;;;;;4990028;28;20452;-88
2023/04/27 13:11:47;;;;;;;;;;;21.50;43.40;;;;;;4988899;28;20542;-87
2023/04/27 13:14:12;;;;;;;;;;;21.70;42.80;;;;;;4989851;28;20213;-87
2023/04/27 13:16:41;;;;;;;;;;;21.90;42.50;;;;;;5001521;28;19952;-88
2023/04/27 13:19:07;;;;;;;;;;;22.10;42.30;;;;;;4980027;28;20340;-85
2023/04/27 13:21:32;;;;;;;;;;;22.30;41.80;;;;;;4985693;28;19906;-85
2023/04/27 13:23:58;;;;;;;;;;;22.20;40.90;;;;;;4981373;28;20337;-84
2023/04/27 13:26:23;;;;;;;;;;;22.30;42.10;;;;;;4987561;28;19906;-85
2023/04/27 13:28:49;;;;;;;;;;;22.30;41.30;;;;;;4989418;28;19964;-84
2023/04/27 13:31:14;;;;;;;;;;;22.30;41.80;;;;;;5017510;28;19937;-84
2023/04/27 13:33:41;;;;;;;;;;;22.30;41.80;;;;;;5008721;28;19905;-86
2023/04/27 13:36:07;;;;;;;;;;;22.10;41.60;;;;;;5008833;28;19913;-85
2023/04/27 13:38:32;;;;;;;;;;;21.70;41.10;;;;;;5013828;28;19917;-85
2023/04/27 13:40:58;;;;;;;;;;;21.60;41.80;;;;;;4985958;28;20443;-82
2023/04/27 13:43:25;;;;;;;;;;;21.80;42.30;;;;;;4997307;28;19916;-88
2023/04/27 13:45:53;;;;;;;;;;;21.90;42.60;;;;;;4989457;28;19909;-84
2023/04/27 13:48:18;;;;;;;;;;;21.80;40.80;;;;;;5002781;28;19988;-84
2023/04/27 13:50:44;;;;;;;;;;;21.60;41.80;;;;;;4994290;28;20008;-84
2023/04/27 13:53:10;;;;;;;;;;;21.40;42.20;;;;;;4984785;28;19964;-84
2023/04/27 13:55:38;;;;;;;;;;;21.40;42.30;;;;;;4991731;28;20236;-84
2023/04/27 13:58:04;;;;;;;;;;;21.50;42.50;;;;;;4998971;28;19917;-85
2023/04/27 14:00:32;;;;;;;;;;;21.70;41.60;;;;;;4987662;28;19913;-85
2023/04/27 14:02:58;;;;;;;;;;;21.90;41.40;;;;;;4996001;28;19905;-84
2023/04/27 14:05:24;;;;;;;;;;;21.70;40.50;;;;;;4992347;28;20524;-84
2023/04/27 14:07:49;;;;;;;;;;;22.00;40.50;;;;;;4995775;28;20059;-85
2023/04/27 14:10:17;;;;;;;;;;;22.60;39.80;;;;;;4997283;28;20380;-84
2023/04/27 14:12:43;;;;;;;;;;;22.90;39.40;;;;;;4989156;28;20020;-85
2023/04/27 14:15:08;;;;;;;;;;;23.10;39.00;;;;;;4994130;28;19999;-83
2023/04/27 14:17:34;;;;;;;;;;;23.00;38.90;;;;;;4985205;28;19936;-83
2023/04/27 14:20:03;;;;;;;;;;;23.10;40.10;;;;;;4988094;28;20268;-83